Historyczne dane pomiarowe

Dodano dane terminowe – wersja testowa.

Dane z okresu 1951-2019

Wersja bazy: 1.34 [2019-03-16, lista zmian], aktualizacja planowana na 2019-04-15

Dane meteo z obszaru Polski uzyskane na podstawie danych udostępnionych przez Instytut Meteorologii i Gospodarki Wodnej – Państwowy Instytut Badawczy.

 

Wybierz Datę:    

       

TemperaturaWilgotnośćZachmurzenieWiatrCiśnienieWidzialnośćZjawiska
 Data    tng td wb rh cc ccl cl cm ch dir g1 g2 mslp ppp      
1999-07-26 00:00:00 20.7--- 14.8 17.069wxwxwx1wx--1017.7 995.2 0.0---wx
1999-07-26 01:00:00 20.6--- 14.8 17.070wxwxwx1wx--1017.5 995.0----wx
1999-07-26 02:00:00 20.2--- 14.7 16.871wxwxwx1wx--1017.4 994.9----wx
1999-07-26 03:00:00 19.9--- 14.4 16.571wxwxwx1wx--1017.6 995.0----wx
1999-07-26 04:00:00 19.5--- 14.3 16.372wxwxwx1wx--1017.8 995.2----wx
1999-07-26 05:00:00 19.2--- 15.2 16.778wxwxwxwx1wx--1017.8 995.2----wx
1999-07-26 06:00:00 20.0--- 15.9 17.477wxwxwx0wx--1017.5 995.0 0.0---wx
1999-07-26 07:00:00 23.1--- 15.4 18.262wxwxwx1wx--1017.4 995.1----wx
1999-07-26 08:00:00 23.8--- 15.5 18.560wxwxwx2wx--1017.5 995.2----wx
1999-07-26 09:00:00 24.3--- 16.1 19.060wxwxwxwx3wx--1017.6 995.4----wx
1999-07-26 10:00:00 25.0--- 16.0 19.258wxwxwxwx2wx--1017.5 995.3----wx
1999-07-26 11:00:00 24.9--- 16.3 19.359wxwxwxwx4wx--1017.4 995.2----wx
1999-07-26 12:00:00 24.3--- 15.2 18.557wxwxwxwx3wx--1017.4 995.2 0.0---wx
1999-07-26 13:00:00 25.2--- 15.2 18.854wxwxwxwx4wx--1017.4 995.2----wx
1999-07-26 14:00:00 24.6--- 15.2 18.656wxwxwxwx4wx--1017.5 995.3----wx
1999-07-26 15:00:00 22.8--- 14.9 17.861wxwxwxwx5wx--1018.1 995.8----wx
1999-07-26 16:00:00 21.4--- 13.6 16.661wxwxwxwx4wx--1018.5 996.0----wx
1999-07-26 17:00:00 21.1--- 13.1 16.260wxwxwxwx4wx--1018.8 996.3----wx
1999-07-26 18:00:00 19.2--- 12.5 15.265wxwxwxwxwx3wx--1019.2 996.6 0.0---wx
1999-07-26 19:00:00 18.0--- 12.8 14.972wxwxwxwx3wx--1019.9 997.1----wx
1999-07-26 20:00:00 17.2--- 12.8 14.676wxwxwx2wx--1020.5 997.7----wx
1999-07-26 21:00:00 16.8--- 12.9 14.578wxwxwx1wx--1020.7 997.8----wx
1999-07-26 22:00:00 16.1--- 12.9 14.281wxwxwx1wx--1021.0 998.1----wx
1999-07-26 23:00:00 14.8--- 11.9 13.183wxwxwx2wx--1021.6 998.6----wx

 

Źródłem pochodzenia danych jest Instytut Meteorologii i Gospodarki Wodnej – Państwowy Instytut Badawczy. Dane Instytutu Meteorologii i Gospodarki Wodnej – Państwowego Instytutu Badawczego zostały przetworzone.

Dane źródłowe można odnaleźć na stronie https://dane.imgw.pl